Time;durP1;ratioP1;P1;durP2;ratioP2;P2;SDS_P1;SDS_P2;PMS_P1;PMS_P2;Temp;Humidity;BMP_temperature;BMP_pressure;BME280_temperature;BME280_humidity;BME280_pressure;Samples;Min_cycle;Max_cycle;Signal;HPM_P1;HPM_P2
2021/01/21 00:01:06;;;;;;;82.53;41.28;;;5.90;99.90;;;;;;4993161;28;20069;-77
2021/01/21 00:03:33;;;;;;;86.68;42.97;;;5.90;99.90;;;;;;4963404;28;873166;-76
2021/01/21 00:06:00;;;;;;;87.03;45.53;;;5.90;99.90;;;;;;4976562;28;20548;-77
2021/01/21 00:08:26;;;;;;;117.45;50.33;;;5.70;99.90;;;;;;4976562;28;20122;-76
2021/01/21 00:10:52;;;;;;;79.03;39.25;;;5.70;99.90;;;;;;4993443;28;20014;-77
2021/01/21 00:13:18;;;;;;;75.88;39.10;;;5.70;99.90;;;;;;4976568;28;20543;-76
2021/01/21 00:15:44;;;;;;;83.65;40.38;;;5.60;99.90;;;;;;4976611;28;20048;-76
2021/01/21 00:18:10;;;;;;;84.53;41.50;;;5.60;99.90;;;;;;4973328;28;20072;-76
2021/01/21 00:20:35;;;;;;;97.25;44.63;;;5.60;99.90;;;;;;4976021;28;20034;-75
2021/01/21 00:23:01;;;;;;;107.00;45.67;;;5.60;99.90;;;;;;4976172;28;20038;-77
2021/01/21 00:25:27;;;;;;;86.35;44.85;;;5.50;99.90;;;;;;4993517;28;20409;-77
2021/01/21 00:27:53;;;;;;;88.50;44.83;;;5.40;99.90;;;;;;4993892;28;20026;-77
2021/01/21 00:30:19;;;;;;;96.30;48.63;;;5.40;99.90;;;;;;4976611;28;20041;-77
2021/01/21 00:32:45;;;;;;;88.63;46.30;;;5.30;99.90;;;;;;4993725;28;20517;-77
2021/01/21 00:35:16;;;;;;;93.65;49.17;;;5.20;99.90;;;;;;4976295;28;20034;-77
2021/01/21 00:37:41;;;;;;;;;;;5.20;99.90;;;;;;4994117;28;20073;-77
2021/01/21 00:40:08;;;;;;;104.20;54.53;;;5.20;99.90;;;;;;4993808;28;19957;-77
2021/01/21 00:42:33;;;;;;;105.30;53.58;;;5.10;99.90;;;;;;4975203;28;20026;-78
2021/01/21 00:45:00;;;;;;;100.82;52.83;;;5.20;99.90;;;;;;4994184;28;20046;-77
2021/01/21 00:47:25;;;;;;;105.35;53.65;;;5.10;99.90;;;;;;4976370;28;20037;-77
2021/01/21 00:49:52;;;;;;;130.80;68.30;;;5.10;99.90;;;;;;4976022;28;20022;-77
2021/01/21 00:52:17;;;;;;;133.18;69.45;;;5.20;99.90;;;;;;4993977;28;20034;-77
2021/01/21 00:54:43;;;;;;;125.60;60.67;;;5.20;99.90;;;;;;4975989;28;20022;-77
2021/01/21 00:57:09;;;;;;;99.70;51.00;;;5.30;99.90;;;;;;4993301;28;20049;-76
2021/01/21 00:59:35;;;;;;;96.18;49.60;;;5.10;99.90;;;;;;4975542;28;20548;-76
2021/01/21 01:02:01;;;;;;;88.55;48.33;;;5.10;99.90;;;;;;4992930;28;20023;-76
2021/01/21 01:04:28;;;;;;;87.50;48.25;;;5.10;99.90;;;;;;4992909;28;20078;-76
2021/01/21 01:06:54;;;;;;;91.60;49.92;;;5.00;99.90;;;;;;4992848;28;20031;-76
2021/01/21 01:09:20;;;;;;;89.00;48.25;;;4.90;99.90;;;;;;4992218;28;20101;-76
2021/01/21 01:11:46;;;;;;;161.52;51.00;;;4.90;99.90;;;;;;4993281;28;20106;-76
2021/01/21 01:14:12;;;;;;;87.88;46.08;;;4.80;99.90;;;;;;4990928;28;20034;-76
2021/01/21 01:16:38;;;;;;;78.47;43.97;;;4.70;99.90;;;;;;4993062;28;20040;-76
2021/01/21 01:19:05;;;;;;;91.35;50.42;;;4.70;99.90;;;;;;4975620;28;20031;-75
2021/01/21 01:21:31;;;;;;;86.60;50.28;;;4.70;99.90;;;;;;4993034;28;20030;-75
2021/01/21 01:23:56;;;;;;;95.55;52.15;;;4.70;99.90;;;;;;4993156;28;20045;-75
2021/01/21 01:26:22;;;;;;;96.00;53.30;;;4.70;99.90;;;;;;4975543;28;20141;-75
2021/01/21 01:28:48;;;;;;;76.85;45.08;;;4.70;99.90;;;;;;4973079;28;20026;-76
2021/01/21 01:31:14;;;;;;;74.20;40.40;;;4.70;99.90;;;;;;4992650;28;20038;-76
2021/01/21 01:33:41;;;;;;;125.35;56.60;;;4.70;99.90;;;;;;4975515;28;20057;-76
2021/01/21 01:36:07;;;;;;;155.15;70.90;;;4.80;99.90;;;;;;4992882;28;20474;-76
2021/01/21 01:38:33;;;;;;;107.25;46.42;;;4.90;99.90;;;;;;4992633;28;20106;-76
2021/01/21 01:40:59;;;;;;;73.85;38.50;;;4.90;99.90;;;;;;4975519;28;20533;-76
2021/01/21 01:43:25;;;;;;;67.63;35.40;;;5.00;99.90;;;;;;4975617;28;20033;-76
2021/01/21 01:45:51;;;;;;;48.97;28.98;;;4.90;99.90;;;;;;4975708;28;20027;-76
2021/01/21 01:48:18;;;;;;;72.60;38.25;;;4.90;99.90;;;;;;4975550;28;20022;-76
2021/01/21 01:50:44;;;;;;;120.47;58.50;;;4.90;99.90;;;;;;4993054;28;20029;-76
2021/01/21 01:53:11;;;;;;;115.13;53.47;;;4.80;99.90;;;;;;4992924;28;20031;-76
2021/01/21 01:55:40;;;;;;;100.85;40.33;;;4.80;99.90;;;;;;4993179;28;20033;-76
2021/01/21 01:58:11;;;;;;;71.93;34.55;;;4.80;99.90;;;;;;4975347;28;20130;-76
2021/01/21 02:00:37;;;;;;;56.47;32.10;;;4.80;99.90;;;;;;4992799;28;20397;-76
2021/01/21 02:03:03;;;;;;;60.72;32.35;;;4.80;99.90;;;;;;4992690;28;20125;-76
2021/01/21 02:05:29;;;;;;;67.32;34.13;;;4.80;99.90;;;;;;4992275;28;20053;-76
2021/01/21 02:07:55;;;;;;;53.50;29.05;;;4.80;99.90;;;;;;4975579;28;20050;-76
2021/01/21 02:10:21;;;;;;;46.25;26.75;;;4.70;99.90;;;;;;4992975;28;20365;-76
2021/01/21 02:13:19;;;;;;;41.25;22.55;;;4.60;99.90;;;;;;4992995;28;20030;-76
2021/01/21 02:15:51;;;;;;;41.40;23.40;;;4.70;99.90;;;;;;4975278;28;20033;-76
2021/01/21 02:18:26;;;;;;;42.45;24.20;;;4.70;99.90;;;;;;4993018;28;20554;-76
2021/01/21 02:21:10;;;;;;;44.88;27.00;;;4.70;99.90;;;;;;4978267;28;20117;-77
2021/01/21 02:23:50;;;;;;;43.47;24.02;;;4.70;99.90;;;;;;4996771;28;20397;-77
2021/01/21 02:26:27;;;;;;;40.03;21.92;;;4.70;99.90;;;;;;4996806;28;20023;-77
2021/01/21 02:29:09;;;;;;;48.83;20.15;;;4.70;99.90;;;;;;4996208;28;20026;-76
2021/01/21 02:32:07;;;;;;;37.33;21.35;;;4.70;99.90;;;;;;4996020;28;20030;-76
2021/01/21 02:34:45;;;;;;;34.55;19.63;;;4.70;99.90;;;;;;4978437;28;20041;-76
2021/01/21 02:37:24;;;;;;;34.10;19.85;;;4.70;99.90;;;;;;4996097;28;20072;-76
2021/01/21 02:39:54;;;;;;;33.67;19.45;;;4.70;99.90;;;;;;4978461;28;20026;-76
2021/01/21 02:42:20;;;;;;;34.08;20.75;;;4.70;99.90;;;;;;4996050;28;20092;-76
2021/01/21 02:44:47;;;;;;;40.90;20.52;;;4.70;99.90;;;;;;4978809;28;20381;-77
2021/01/21 02:47:14;;;;;;;38.08;21.10;;;4.80;99.90;;;;;;4996430;28;20030;-77
2021/01/21 02:49:41;;;;;;;31.00;17.77;;;4.80;99.90;;;;;;4996164;28;20018;-77
2021/01/21 02:52:32;;;;;;;23.30;14.35;;;4.80;99.90;;;;;;4978920;28;20362;-77
2021/01/21 02:55:23;;;;;;;17.90;11.40;;;4.90;99.90;;;;;;4978912;28;20110;-77
2021/01/21 02:58:12;;;;;;;18.35;10.55;;;4.90;99.90;;;;;;4996145;28;20049;-77
2021/01/21 03:00:39;;;;;;;11.93;8.02;;;5.00;99.90;;;;;;4996213;28;20073;-77
2021/01/21 03:03:18;;;;;;;20.23;8.98;;;5.00;99.90;;;;;;4995685;28;20049;-77
2021/01/21 03:05:48;;;;;;;11.50;7.25;;;5.10;99.90;;;;;;4996059;28;20028;-77
2021/01/21 03:08:14;;;;;;;18.75;9.48;;;5.10;99.90;;;;;;4978829;28;20026;-77
2021/01/21 03:10:39;;;;;;;24.25;13.25;;;5.10;99.90;;;;;;4977482;28;20027;-76
2021/01/21 03:13:05;;;;;;;20.83;13.75;;;5.10;99.90;;;;;;4978049;28;20236;-76
2021/01/21 03:15:31;;;;;;;52.00;26.80;;;4.90;99.90;;;;;;4995194;28;20037;-76
2021/01/21 03:17:57;;;;;;;66.63;31.67;;;4.90;99.90;;;;;;4995604;28;20034;-77
2021/01/21 03:20:23;;;;;;;62.30;29.95;;;4.80;99.90;;;;;;4995827;28;20105;-77
2021/01/21 03:22:48;;;;;;;63.50;32.35;;;4.60;99.90;;;;;;4995538;28;20461;-77
2021/01/21 03:25:14;;;;;;;74.10;32.10;;;4.60;99.90;;;;;;4994966;28;20038;-75
2021/01/21 03:27:40;;;;;;;64.00;29.65;;;4.50;99.90;;;;;;4994701;28;20030;-76
2021/01/21 03:30:08;;;;;;;62.85;30.25;;;4.40;99.90;;;;;;4994699;28;20029;-76
2021/01/21 03:32:35;;;;;;;122.97;49.25;;;4.40;99.90;;;;;;4976707;28;20454;-76
2021/01/21 03:35:00;;;;;;;201.48;75.40;;;4.40;99.90;;;;;;4995166;28;20113;-77
2021/01/21 03:37:26;;;;;;;250.23;97.95;;;4.30;99.90;;;;;;4995209;28;20109;-77
2021/01/21 03:39:52;;;;;;;234.30;88.43;;;4.30;99.90;;;;;;4977938;28;20473;-77
2021/01/21 03:42:18;;;;;;;135.35;59.13;;;4.30;99.90;;;;;;4995054;28;20026;-77
2021/01/21 03:44:44;;;;;;;72.95;41.28;;;4.30;99.90;;;;;;4995097;28;20015;-77
2021/01/21 03:47:09;;;;;;;64.32;34.45;;;4.20;99.90;;;;;;4977630;28;20050;-76
2021/01/21 03:49:35;;;;;;;61.00;32.53;;;4.10;99.90;;;;;;4977336;28;20260;-77
2021/01/21 03:52:01;;;;;;;64.22;33.67;;;4.20;99.90;;;;;;4977606;28;20033;-77
2021/01/21 03:54:28;;;;;;;61.28;29.13;;;4.10;99.90;;;;;;4994817;28;20039;-76
2021/01/21 03:56:54;;;;;;;45.85;26.90;;;4.20;99.90;;;;;;4994615;28;20030;-76
2021/01/21 03:59:20;;;;;;;60.22;33.78;;;4.30;99.90;;;;;;4994473;28;20030;-76
2021/01/21 04:01:47;;;;;;;78.45;42.30;;;4.30;99.90;;;;;;4994313;28;20053;-76
2021/01/21 04:04:12;;;;;;;87.10;38.75;;;4.30;99.90;;;;;;4994343;28;20125;-76
2021/01/21 04:06:39;;;;;;;38.92;21.77;;;4.30;99.90;;;;;;4994682;28;20450;-76
2021/01/21 04:09:05;;;;;;;36.55;19.92;;;4.40;99.90;;;;;;4994309;28;20027;-76
2021/01/21 04:11:31;;;;;;;28.98;16.58;;;4.50;99.90;;;;;;4976987;28;20022;-77
2021/01/21 04:13:57;;;;;;;21.50;13.25;;;4.60;99.90;;;;;;4994110;28;20478;-76
2021/01/21 04:16:23;;;;;;;30.35;16.17;;;4.70;99.90;;;;;;4994235;28;20030;-77
2021/01/21 04:18:48;;;;;;;32.92;18.35;;;4.70;99.90;;;;;;4994019;28;20032;-77
2021/01/21 04:21:14;;;;;;;28.88;15.93;;;4.70;99.90;;;;;;4976562;28;20113;-77
2021/01/21 04:23:40;;;;;;;23.33;13.30;;;4.70;99.90;;;;;;4994173;28;20374;-77
2021/01/21 04:26:06;;;;;;;27.45;14.38;;;4.80;99.90;;;;;;4994095;28;20105;-77
2021/01/21 04:28:32;;;;;;;30.00;15.45;;;4.90;99.90;;;;;;4976781;28;20023;-77
2021/01/21 04:30:58;;;;;;;30.20;16.67;;;4.90;99.90;;;;;;4976801;28;20030;-77
2021/01/21 04:33:24;;;;;;;31.33;16.95;;;4.90;99.90;;;;;;4994363;28;20030;-77
2021/01/21 04:35:51;;;;;;;28.75;17.13;;;4.90;99.90;;;;;;4976657;28;20026;-77
2021/01/21 04:38:17;;;;;;;19.38;10.73;;;4.80;99.90;;;;;;4973803;28;20037;-77
2021/01/21 04:40:44;;;;;;;28.50;14.85;;;4.90;99.90;;;;;;4974950;28;20493;-77
2021/01/21 04:43:10;;;;;;;23.60;14.43;;;4.90;99.90;;;;;;4974400;28;20107;-77
2021/01/21 04:45:36;;;;;;;54.88;19.27;;;4.90;99.90;;;;;;4957229;28;20301;-77
2021/01/21 04:48:02;;;;;;;40.90;22.25;;;5.00;99.90;;;;;;4974890;28;20023;-77
2021/01/21 04:50:29;;;;;;;32.13;18.38;;;5.00;99.90;;;;;;4974958;28;20026;-77
2021/01/21 04:52:57;;;;;;;41.10;21.75;;;5.00;99.90;;;;;;4974825;28;20368;-77
2021/01/21 04:55:33;;;;;;;35.13;18.35;;;5.00;99.90;;;;;;4974534;28;20401;-77
2021/01/21 04:58:02;;;;;;;29.60;17.02;;;5.00;99.90;;;;;;4974666;28;20046;-77
2021/01/21 05:00:28;;;;;;;21.63;12.30;;;5.00;99.90;;;;;;4974407;28;20105;-77
2021/01/21 05:02:56;;;;;;;32.63;15.05;;;5.00;99.90;;;;;;4974236;28;20039;-77
2021/01/21 05:05:22;;;;;;;52.08;25.85;;;5.00;99.90;;;;;;4974657;28;20038;-77
2021/01/21 05:07:48;;;;;;;41.92;21.55;;;5.00;99.90;;;;;;4974912;28;20030;-77
2021/01/21 05:10:15;;;;;;;36.28;18.13;;;4.90;99.90;;;;;;4956849;28;20375;-77
2021/01/21 05:12:41;;;;;;;24.33;14.30;;;4.90;99.90;;;;;;4974515;28;20038;-77
2021/01/21 05:15:07;;;;;;;22.17;11.63;;;4.90;99.90;;;;;;4956888;28;20031;-77
2021/01/21 05:17:33;;;;;;;24.88;13.52;;;4.90;99.90;;;;;;4974282;28;20102;-77
2021/01/21 05:20:00;;;;;;;58.40;29.02;;;4.90;99.90;;;;;;4974338;28;20178;-77
2021/01/21 05:22:26;;;;;;;49.50;22.52;;;5.00;99.90;;;;;;4974868;28;20153;-77
2021/01/21 05:24:52;;;;;;;30.63;17.38;;;4.90;99.90;;;;;;4974189;28;20105;-77
2021/01/21 05:27:20;;;;;;;167.48;21.85;;;5.00;99.90;;;;;;4956967;28;20071;-77
2021/01/21 05:29:47;;;;;;;22.40;11.38;;;5.00;99.90;;;;;;4974268;28;20478;-77
2021/01/21 05:32:18;;;;;;;36.22;12.50;;;5.00;99.90;;;;;;4974165;28;20038;-77
2021/01/21 05:34:46;;;;;;;20.90;12.55;;;4.90;99.90;;;;;;4974147;28;20023;-77
2021/01/21 05:37:13;;;;;;;26.90;14.15;;;4.90;99.90;;;;;;4956694;28;20073;-77
2021/01/21 05:39:40;;;;;;;21.83;14.18;;;4.80;99.90;;;;;;4973816;28;20195;-77
2021/01/21 05:42:07;;;;;;;25.83;16.50;;;4.90;99.90;;;;;;4973887;28;20030;-77
2021/01/21 05:44:33;;;;;;;44.55;20.67;;;4.80;99.90;;;;;;4956547;28;20356;-77
2021/01/21 05:47:08;;;;;;;45.42;25.23;;;4.80;99.90;;;;;;4974269;28;20019;-77
2021/01/21 05:49:34;;;;;;;28.13;18.02;;;4.80;99.90;;;;;;4974609;28;20023;-77
2021/01/21 05:52:00;;;;;;;38.45;23.63;;;4.80;99.90;;;;;;4973880;28;20026;-77
2021/01/21 05:54:30;;;;;;;37.47;23.17;;;4.80;99.90;;;;;;4974787;28;20467;-77
2021/01/21 05:56:58;;;;;;;137.25;68.13;;;4.80;99.90;;;;;;4978120;28;20034;-77
2021/01/21 05:59:26;;;;;;;234.75;117.35;;;4.80;99.90;;;;;;4977831;28;20046;-77
2021/01/21 06:01:55;;;;;;;57.08;32.95;;;4.80;99.90;;;;;;4960242;28;20027;-77
2021/01/21 06:04:26;;;;;;;34.80;20.65;;;4.90;99.90;;;;;;4977575;28;20057;-77
2021/01/21 06:06:55;;;;;;;31.58;16.45;;;4.90;99.90;;;;;;4960035;28;20038;-77
2021/01/21 06:09:28;;;;;;;42.75;25.92;;;5.00;99.90;;;;;;4960081;28;20030;-77
2021/01/21 06:12:02;;;;;;;38.30;21.75;;;4.90;99.90;;;;;;4960390;28;20027;-77
2021/01/21 06:14:28;;;;;;;28.90;17.48;;;4.90;99.90;;;;;;4977493;28;20125;-77
2021/01/21 06:16:56;;;;;;;29.30;16.35;;;4.90;99.90;;;;;;4977187;28;20102;-77
2021/01/21 06:19:23;;;;;;;23.05;14.10;;;4.90;99.90;;;;;;4959686;28;20030;-77
2021/01/21 06:21:55;;;;;;;48.75;29.23;;;5.00;99.90;;;;;;4977177;28;20022;-77
2021/01/21 06:24:28;;;;;;;75.57;40.47;;;4.90;99.90;;;;;;4977145;28;20023;-77
2021/01/21 06:26:56;;;;;;;105.00;54.67;;;4.90;99.90;;;;;;4977251;28;20023;-77
2021/01/21 06:29:28;;;;;;;83.68;45.00;;;4.90;99.90;;;;;;4977133;28;20470;-77
2021/01/21 06:32:01;;;;;;;54.83;34.78;;;4.90;99.90;;;;;;4959744;28;20031;-77
2021/01/21 06:34:38;;;;;;;109.43;46.22;;;4.90;99.90;;;;;;4976534;28;20022;-76
2021/01/21 06:37:16;;;;;;;117.00;58.63;;;4.80;99.90;;;;;;4959136;28;20031;-76
2021/01/21 06:39:55;;;;;;;198.60;100.15;;;4.80;99.90;;;;;;4976536;28;20034;-76
2021/01/21 06:42:32;;;;;;;196.55;102.65;;;4.80;99.90;;;;;;4976306;28;20014;-76
2021/01/21 06:44:59;;;;;;;107.07;56.85;;;4.70;99.90;;;;;;4976392;28;20023;-77
2021/01/21 06:47:25;;;;;;;49.28;29.42;;;4.70;99.90;;;;;;4976759;28;20073;-77
2021/01/21 06:50:01;;;;;;;50.92;31.60;;;4.80;99.90;;;;;;4976843;28;20101;-77
2021/01/21 06:52:31;;;;;;;92.57;49.55;;;4.70;99.90;;;;;;4977070;28;20482;-77
2021/01/21 06:55:00;;;;;;;64.25;36.80;;;4.70;99.90;;;;;;4959599;28;20494;-77
2021/01/21 06:57:52;;;;;;;41.28;24.77;;;4.70;99.90;;;;;;4976824;28;20475;-77
2021/01/21 07:00:37;;;;;;;39.63;23.00;;;4.80;99.90;;;;;;4956759;28;20524;-77
2021/01/21 07:03:04;;;;;;;47.20;27.63;;;4.90;99.90;;;;;;4958999;28;20043;-77
2021/01/21 07:05:30;;;;;;;64.55;31.05;;;4.90;99.90;;;;;;4976349;28;20427;-77
2021/01/21 07:07:58;;;;;;;43.17;25.52;;;4.90;99.90;;;;;;4976124;28;20031;-77
2021/01/21 07:10:32;;;;;;;43.00;25.98;;;5.00;99.90;;;;;;4976102;28;20035;-77
2021/01/21 07:13:00;;;;;;;59.47;32.60;;;5.00;99.90;;;;;;4976243;28;20022;-77
2021/01/21 07:15:36;;;;;;;40.10;20.30;;;4.90;99.90;;;;;;4958929;28;20062;-77
2021/01/21 07:18:06;;;;;;;35.75;20.38;;;5.00;99.90;;;;;;4958690;28;20109;-77
2021/01/21 07:20:34;;;;;;;50.45;32.25;;;5.00;99.90;;;;;;4958504;28;20050;-77
2021/01/21 07:23:07;;;;;;;51.42;31.23;;;5.00;99.90;;;;;;4958646;28;20046;-77
2021/01/21 07:25:34;;;;;;;65.07;35.88;;;5.00;99.90;;;;;;4975932;28;20380;-79
2021/01/21 07:28:10;;;;;;;82.97;50.35;;;5.00;99.90;;;;;;4975929;28;20045;-79
2021/01/21 07:30:39;;;;;;;144.80;73.57;;;5.00;99.90;;;;;;4976610;28;20113;-79
2021/01/21 07:33:23;;;;;;;95.50;50.05;;;5.00;99.90;;;;;;4995110;28;20513;-79
2021/01/21 07:35:50;;;;;;;87.80;48.75;;;5.10;99.90;;;;;;4977518;28;20026;-77
2021/01/21 07:38:51;;;;;;;69.38;39.67;;;5.00;99.90;;;;;;4977662;28;20033;-77
2021/01/21 07:41:41;;;;;;;63.20;38.17;;;5.10;99.90;;;;;;4935095;29;20042;-77
2021/01/21 07:44:07;;;;;;;35.30;18.88;;;5.10;99.90;;;;;;4992482;28;20042;-77
2021/01/21 07:46:33;;;;;;;64.85;37.83;;;5.20;99.90;;;;;;4977486;28;20030;-77
2021/01/21 07:49:24;;;;;;;63.33;33.05;;;5.10;99.90;;;;;;4994824;28;20034;-77
2021/01/21 07:52:06;;;;;;;60.28;34.58;;;5.20;99.90;;;;;;4995228;28;20105;-78
2021/01/21 07:54:51;;;;;;;84.32;45.67;;;5.20;99.90;;;;;;4995195;28;20066;-78
2021/01/21 07:57:21;;;;;;;208.00;87.25;;;5.20;99.90;;;;;;4994570;28;20026;-78
2021/01/21 08:00:16;;;;;;;169.90;82.40;;;5.30;99.90;;;;;;4994797;28;20042;-80
2021/01/21 08:02:43;;;;;;;194.23;101.25;;;5.30;99.90;;;;;;4964605;28;20045;-77
2021/01/21 08:05:09;;;;;;;199.82;98.25;;;5.40;99.90;;;;;;4994670;28;20097;-77
2021/01/21 08:07:49;;;;;;;108.15;60.58;;;5.40;99.90;;;;;;4977273;28;20049;-78
2021/01/21 08:10:19;;;;;;;109.10;54.25;;;5.40;99.90;;;;;;4994232;28;20030;-77
2021/01/21 08:13:15;;;;;;;128.00;66.80;;;5.40;99.90;;;;;;4994679;28;20030;-77
2021/01/21 08:15:43;;;;;;;191.23;100.75;;;5.40;99.90;;;;;;4964488;28;20069;-77
2021/01/21 08:18:15;;;;;;;300.48;146.20;;;5.40;99.90;;;;;;4993626;28;20377;-76
2021/01/21 08:20:41;;;;;;;148.45;79.53;;;5.50;99.90;;;;;;4994544;28;20018;-77
2021/01/21 08:23:10;;;;;;;80.95;49.13;;;5.60;99.90;;;;;;4977022;28;20022;-77
2021/01/21 08:25:50;;;;;;;68.37;41.67;;;5.80;99.90;;;;;;4994325;28;20027;-78
2021/01/21 08:28:20;;;;;;;81.22;41.20;;;5.90;99.90;;;;;;4994190;28;20026;-79
2021/01/21 08:30:49;;;;;;;100.00;43.60;;;6.10;99.90;;;;;;4976799;28;20034;-76
2021/01/21 08:33:31;;;;;;;76.65;34.45;;;6.40;99.90;;;;;;4976847;28;20461;-78
2021/01/21 08:36:04;;;;;;;45.83;26.88;;;6.60;99.90;;;;;;4977180;28;20065;-78
2021/01/21 08:38:36;;;;;;;45.35;27.63;;;6.90;99.90;;;;;;4994404;28;20022;-76
2021/01/21 08:41:03;;;;;;;90.28;49.92;;;7.00;99.90;;;;;;4994093;28;20478;-83
2021/01/21 08:43:30;;;;;;;83.57;45.85;;;7.20;99.90;;;;;;4994487;28;20027;-77
2021/01/21 08:45:57;;;;;;;52.42;27.80;;;7.50;99.90;;;;;;4976529;28;20023;-77
2021/01/21 08:48:31;;;;;;;36.90;26.38;;;7.60;99.90;;;;;;4994018;28;20022;-78
2021/01/21 08:50:58;;;;;;;31.70;19.63;;;7.70;99.90;;;;;;4976587;28;20022;-78
2021/01/21 08:53:26;;;;;;;82.80;49.28;;;7.80;99.90;;;;;;4971101;28;20053;-77
2021/01/21 08:55:54;;;;;;;44.35;26.08;;;8.00;99.90;;;;;;4974199;28;20023;-84
2021/01/21 08:58:30;;;;;;;101.55;66.25;;;8.40;99.90;;;;;;4979557;28;20033;-77
2021/01/21 09:00:59;;;;;;;29.95;20.45;;;8.70;99.90;;;;;;5012035;28;20080;-78
2021/01/21 09:03:51;;;;;;;35.58;20.60;;;8.80;99.90;;;;;;5013373;28;20099;-77
2021/01/21 09:06:21;;;;;;;29.23;17.25;;;8.70;99.90;;;;;;4995735;28;20034;-77
2021/01/21 09:08:57;;;;;;;30.02;19.67;;;8.70;99.90;;;;;;4995489;28;20026;-78
2021/01/21 09:11:34;;;;;;;27.13;15.85;;;8.70;99.90;;;;;;5013767;28;20026;-78
2021/01/21 09:14:05;;;;;;;24.98;14.82;;;8.80;99.90;;;;;;5013446;28;20018;-78
2021/01/21 09:16:56;;;;;;;45.35;23.10;;;8.80;99.90;;;;;;5013497;28;20026;-78
2021/01/21 09:19:27;;;;;;;26.75;16.95;;;8.90;99.90;;;;;;5013590;28;20473;-78
2021/01/21 09:22:22;;;;;;;23.58;13.80;;;9.00;99.90;;;;;;4995703;28;20465;-77
2021/01/21 09:25:08;;;;;;;21.50;13.93;;;9.20;99.90;;;;;;4994201;28;20469;-77
2021/01/21 09:27:35;;;;;;;23.25;14.32;;;9.40;99.90;;;;;;5013118;28;20053;-77
2021/01/21 09:30:11;;;;;;;28.55;16.98;;;9.50;99.90;;;;;;4996898;28;20370;-77
2021/01/21 09:32:44;;;;;;;30.65;17.85;;;9.80;99.90;;;;;;5016877;28;20033;-77
2021/01/21 09:35:19;;;;;;;29.30;18.05;;;10.00;99.90;;;;;;5004599;28;20597;-80
2021/01/21 09:37:53;;;;;;;583.25;409.83;;;10.20;99.90;;;;;;4980197;28;20458;-77
2021/01/21 09:40:22;;;;;;;52.38;32.85;;;10.90;99.90;;;;;;4996871;28;20034;-77
2021/01/21 09:42:49;;;;;;;33.50;20.20;;;10.90;99.00;;;;;;4996850;28;20121;-77
2021/01/21 09:45:16;;;;;;;20.77;12.43;;;10.90;98.60;;;;;;4996598;28;20018;-76
2021/01/21 09:47:42;;;;;;;22.33;13.38;;;10.90;96.70;;;;;;4997096;28;20081;-77
2021/01/21 09:50:09;;;;;;;22.67;14.48;;;11.00;97.40;;;;;;4979050;28;20026;-77
2021/01/21 09:52:36;;;;;;;27.52;15.20;;;11.10;96.70;;;;;;4979062;28;20022;-76
2021/01/21 09:55:04;;;;;;;31.48;16.80;;;11.20;96.90;;;;;;4996674;28;20034;-77
2021/01/21 09:57:30;;;;;;;32.58;19.83;;;11.40;97.00;;;;;;4996589;28;20030;-77
2021/01/21 09:59:56;;;;;;;31.02;16.58;;;11.40;97.20;;;;;;4996473;28;20030;-76
2021/01/21 10:02:22;;;;;;;23.50;14.93;;;11.60;97.00;;;;;;4996014;28;20152;-77
2021/01/21 10:04:49;;;;;;;25.80;13.88;;;11.70;95.80;;;;;;4996913;28;20034;-78
2021/01/21 10:07:15;;;;;;;22.55;14.93;;;11.90;95.90;;;;;;4978947;28;20029;-76
2021/01/21 10:09:41;;;;;;;21.60;13.77;;;12.00;96.10;;;;;;4996387;28;20026;-76
2021/01/21 10:12:08;;;;;;;21.77;14.07;;;12.20;94.40;;;;;;4996241;28;20046;-77
2021/01/21 10:14:34;;;;;;;28.83;18.30;;;12.30;94.80;;;;;;4996302;28;20026;-77
2021/01/21 10:17:02;;;;;;;25.83;15.52;;;12.30;96.30;;;;;;4996579;28;20102;-76
2021/01/21 10:19:29;;;;;;;19.80;12.43;;;12.40;94.60;;;;;;4978271;28;20029;-75
2021/01/21 10:21:55;;;;;;;21.30;12.80;;;12.60;93.60;;;;;;4995627;28;20018;-76
2021/01/21 10:24:23;;;;;;;19.23;12.32;;;12.60;94.70;;;;;;4996002;28;20030;-76
2021/01/21 10:26:50;;;;;;;16.50;9.25;;;12.90;92.00;;;;;;4995749;28;20022;-76
2021/01/21 10:29:16;;;;;;;13.93;9.57;;;12.90;91.50;;;;;;4995740;28;20054;-77
2021/01/21 10:31:42;;;;;;;15.98;10.43;;;13.00;91.90;;;;;;4996298;28;20757;-76
2021/01/21 10:34:08;;;;;;;15.32;9.18;;;13.20;92.30;;;;;;4978296;28;20030;-76
2021/01/21 10:36:35;;;;;;;13.70;8.70;;;13.40;91.40;;;;;;4995922;28;20022;-76
2021/01/21 10:39:01;;;;;;;19.75;8.85;;;13.50;90.10;;;;;;4995616;28;20477;-77
2021/01/21 10:41:26;;;;;;;18.65;9.90;;;13.70;90.00;;;;;;4995352;28;20026;-78
2021/01/21 10:43:52;;;;;;;27.25;16.17;;;13.70;89.40;;;;;;4993588;28;20960;-77
2021/01/21 10:46:18;;;;;;;30.67;11.70;;;13.90;87.60;;;;;;5015317;28;20425;-75
2021/01/21 10:48:44;;;;;;;16.80;9.52;;;14.00;87.20;;;;;;5015201;28;20030;-77
2021/01/21 10:51:10;;;;;;;17.65;10.65;;;14.10;86.20;;;;;;5015077;28;20041;-77
2021/01/21 10:53:36;;;;;;;32.67;14.30;;;14.30;87.20;;;;;;5009137;28;20088;-77
2021/01/21 10:56:02;;;;;;;146.57;78.47;;;14.40;87.70;;;;;;4982702;28;20038;-77
2021/01/21 10:58:27;;;;;;;35.65;21.25;;;14.50;88.80;;;;;;4986068;28;20031;-77
2021/01/21 11:00:53;;;;;;;26.75;15.98;;;14.60;88.40;;;;;;4976038;28;20054;-77
2021/01/21 11:03:19;;;;;;;26.40;16.45;;;14.70;87.20;;;;;;4975757;28;20047;-76
2021/01/21 11:05:45;;;;;;;19.75;11.85;;;14.70;86.40;;;;;;4958809;28;20471;-76
2021/01/21 11:08:12;;;;;;;17.20;11.00;;;14.80;84.10;;;;;;4958498;28;20031;-76
2021/01/21 11:10:39;;;;;;;15.77;10.13;;;14.90;84.70;;;;;;4958403;28;20022;-76
2021/01/21 11:13:06;;;;;;;16.27;9.73;;;14.90;83.50;;;;;;4957762;28;20031;-75
2021/01/21 11:15:32;;;;;;;13.38;7.40;;;15.00;84.20;;;;;;4975492;28;20027;-77
2021/01/21 11:17:58;;;;;;;12.85;7.97;;;15.10;82.50;;;;;;4984179;28;20074;-76
2021/01/21 11:20:25;;;;;;;15.07;8.50;;;15.20;83.60;;;;;;4980468;28;20031;-75
2021/01/21 11:22:51;;;;;;;19.65;9.88;;;15.20;80.60;;;;;;4975389;28;20023;-76
2021/01/21 11:25:17;;;;;;;17.92;10.05;;;15.30;82.90;;;;;;4957869;28;20105;-76
2021/01/21 11:27:43;;;;;;;16.08;11.15;;;15.30;79.40;;;;;;4975065;28;20102;-76
2021/01/21 11:30:11;;;;;;;33.00;12.18;;;15.30;79.70;;;;;;4957976;28;20125;-74
2021/01/21 11:32:37;;;;;;;34.25;21.05;;;15.40;81.20;;;;;;4974974;28;20050;-75
2021/01/21 11:35:05;;;;;;;151.50;78.03;;;15.40;78.90;;;;;;4975150;28;20026;-75
2021/01/21 11:37:30;;;;;;;398.10;293.83;;;15.40;81.30;;;;;;4975216;28;20402;-81
2021/01/21 11:39:56;;;;;;;33.42;22.88;;;15.60;83.70;;;;;;4975327;28;20027;-76
2021/01/21 11:42:23;;;;;;;64.32;36.40;;;15.90;81.20;;;;;;4975098;28;20028;-76
2021/01/21 11:44:49;;;;;;;43.22;20.52;;;15.90;79.90;;;;;;4974773;28;20027;-76
2021/01/21 11:47:16;;;;;;;45.78;25.15;;;15.80;79.70;;;;;;4974597;28;20027;-76
2021/01/21 11:49:42;;;;;;;96.65;62.28;;;15.90;79.10;;;;;;4974549;28;20038;-76
2021/01/21 11:52:09;;;;;;;36.50;24.77;;;15.90;79.60;;;;;;4973957;28;20034;-76
2021/01/21 11:54:35;;;;;;;22.77;14.65;;;16.00;80.40;;;;;;4974588;28;20023;-75
2021/01/21 11:57:00;;;;;;;19.20;11.50;;;15.90;78.10;;;;;;4981271;28;20078;-76
2021/01/21 11:59:26;;;;;;;26.15;12.98;;;15.90;78.00;;;;;;4979346;28;20049;-75
2021/01/21 12:01:53;;;;;;;23.30;14.93;;;16.10;77.80;;;;;;5013170;28;20064;-75
2021/01/21 12:04:19;;;;;;;21.85;13.20;;;16.00;78.60;;;;;;4995804;28;20485;-75
2021/01/21 12:06:45;;;;;;;15.45;10.93;;;16.10;77.00;;;;;;5013468;28;20484;-75
2021/01/21 12:09:10;;;;;;;13.95;9.25;;;16.20;76.60;;;;;;5013048;28;20093;-75
2021/01/21 12:11:36;;;;;;;15.73;10.20;;;16.20;76.30;;;;;;4997794;28;20026;-75
2021/01/21 12:14:02;;;;;;;16.40;9.43;;;16.40;76.60;;;;;;4981145;28;20113;-76
2021/01/21 12:16:28;;;;;;;15.48;10.13;;;16.40;76.60;;;;;;4973876;28;20390;-74
2021/01/21 12:18:54;;;;;;;18.98;9.73;;;16.50;78.50;;;;;;4984895;28;20027;-75
2021/01/21 12:21:21;;;;;;;15.20;9.40;;;16.50;76.40;;;;;;4993225;28;20023;-75
2021/01/21 12:23:47;;;;;;;25.35;10.18;;;16.50;75.90;;;;;;4993156;28;20027;-75
2021/01/21 12:26:13;;;;;;;14.55;8.65;;;16.50;74.60;;;;;;4993243;28;20026;-75
2021/01/21 12:28:40;;;;;;;17.98;10.40;;;16.40;75.00;;;;;;4993118;28;20109;-75
2021/01/21 12:31:06;;;;;;;12.93;7.88;;;16.50;76.70;;;;;;4993454;28;20048;-75
2021/01/21 12:33:32;;;;;;;14.73;8.63;;;16.50;74.20;;;;;;4993229;28;20451;-75
2021/01/21 12:35:59;;;;;;;15.02;8.73;;;16.40;74.70;;;;;;4993127;28;20113;-75
2021/01/21 12:38:25;;;;;;;27.88;22.33;;;16.30;74.10;;;;;;4993374;28;20026;-77
2021/01/21 12:40:52;;;;;;;21.95;8.75;;;16.30;73.80;;;;;;4993124;28;20541;-76
2021/01/21 12:43:19;;;;;;;14.65;7.65;;;16.40;75.80;;;;;;4992956;28;20140;-76